sensor_id;sensor_type;location;lat;lon;timestamp;pressure;altitude;pressure_sealevel;temperature;humidity
61359;BME280;47228;46.762;23.598;2023-02-20T00:01:47;97445.65;;;1.44;81.73
61359;BME280;47228;46.762;23.598;2023-02-20T00:04:16;97446.11;;;1.44;81.63
61359;BME280;47228;46.762;23.598;2023-02-20T00:06:44;97452.35;;;1.45;81.29
61359;BME280;47228;46.762;23.598;2023-02-20T00:09:12;97459.72;;;1.44;80.84
61359;BME280;47228;46.762;23.598;2023-02-20T00:11:41;97457.94;;;1.43;80.14
61359;BME280;47228;46.762;23.598;2023-02-20T00:14:09;97456.48;;;1.44;80.07
61359;BME280;47228;46.762;23.598;2023-02-20T00:16:37;97461.95;;;1.45;80.03
61359;BME280;47228;46.762;23.598;2023-02-20T00:19:05;97459.26;;;1.46;78.66
61359;BME280;47228;46.762;23.598;2023-02-20T00:21:33;97462.73;;;1.46;78.18
61359;BME280;47228;46.762;23.598;2023-02-20T00:24:02;97466.84;;;1.47;77.93
61359;BME280;47228;46.762;23.598;2023-02-20T00:26:30;97467.71;;;1.47;77.04
61359;BME280;47228;46.762;23.598;2023-02-20T00:28:59;97466.00;;;1.45;76.58
61359;BME280;47228;46.762;23.598;2023-02-20T00:31:26;97467.15;;;1.44;76.18
61359;BME280;47228;46.762;23.598;2023-02-20T00:33:54;97468.70;;;1.41;75.83
61359;BME280;47228;46.762;23.598;2023-02-20T00:36:22;97477.91;;;1.42;76.44
61359;BME280;47228;46.762;23.598;2023-02-20T00:38:50;97484.89;;;1.42;75.80
61359;BME280;47228;46.762;23.598;2023-02-20T00:41:18;97487.58;;;1.43;75.50
61359;BME280;47228;46.762;23.598;2023-02-20T00:43:48;97490.50;;;1.41;75.16
61359;BME280;47228;46.762;23.598;2023-02-20T00:46:16;97494.31;;;1.42;75.43
61359;BME280;47228;46.762;23.598;2023-02-20T00:48:44;97493.86;;;1.41;74.76
61359;BME280;47228;46.762;23.598;2023-02-20T00:51:12;97489.05;;;1.40;74.70
61359;BME280;47228;46.762;23.598;2023-02-20T00:53:40;97484.00;;;1.40;74.47
61359;BME280;47228;46.762;23.598;2023-02-20T00:56:08;97485.14;;;1.41;74.91
61359;BME280;47228;46.762;23.598;2023-02-20T00:58:36;97487.45;;;1.43;74.97
61359;BME280;47228;46.762;23.598;2023-02-20T01:01:04;97496.65;;;1.43;74.65
61359;BME280;47228;46.762;23.598;2023-02-20T01:03:32;97500.64;;;1.43;74.75
61359;BME280;47228;46.762;23.598;2023-02-20T01:06:00;97503.55;;;1.44;74.30
61359;BME280;47228;46.762;23.598;2023-02-20T01:08:30;97501.14;;;1.44;73.47
61359;BME280;47228;46.762;23.598;2023-02-20T01:10:58;97508.85;;;1.46;73.76
61359;BME280;47228;46.762;23.598;2023-02-20T01:13:26;97519.93;;;1.46;73.22
61359;BME280;47228;46.762;23.598;2023-02-20T01:15:54;97520.98;;;1.46;72.96
61359;BME280;47228;46.762;23.598;2023-02-20T01:18:23;97525.08;;;1.45;72.50
61359;BME280;47228;46.762;23.598;2023-02-20T01:20:51;97529.04;;;1.42;72.05
61359;BME280;47228;46.762;23.598;2023-02-20T01:23:19;97530.55;;;1.37;72.07
61359;BME280;47228;46.762;23.598;2023-02-20T01:25:48;97532.02;;;1.34;72.12
61359;BME280;47228;46.762;23.598;2023-02-20T01:28:16;97543.45;;;1.31;72.37
61359;BME280;47228;46.762;23.598;2023-02-20T01:30:44;97544.21;;;1.28;72.05
61359;BME280;47228;46.762;23.598;2023-02-20T01:33:13;97543.13;;;1.25;72.21
61359;BME280;47228;46.762;23.598;2023-02-20T01:35:40;97544.54;;;1.21;72.22
61359;BME280;47228;46.762;23.598;2023-02-20T01:38:08;97541.15;;;1.16;71.83
61359;BME280;47228;46.762;23.598;2023-02-20T01:40:36;97545.66;;;1.12;71.61
61359;BME280;47228;46.762;23.598;2023-02-20T01:43:04;97549.88;;;1.10;70.99
61359;BME280;47228;46.762;23.598;2023-02-20T01:45:37;97549.63;;;1.09;71.51
61359;BME280;47228;46.762;23.598;2023-02-20T01:48:22;97551.92;;;1.06;70.94
61359;BME280;47228;46.762;23.598;2023-02-20T01:50:55;97559.60;;;1.04;71.42
61359;BME280;47228;46.762;23.598;2023-02-20T01:53:27;97564.34;;;1.02;71.61
61359;BME280;47228;46.762;23.598;2023-02-20T01:56:04;97566.55;;;1.01;71.27
61359;BME280;47228;46.762;23.598;2023-02-20T01:58:39;97562.52;;;0.99;70.94
61359;BME280;47228;46.762;23.598;2023-02-20T02:01:10;97557.57;;;0.98;70.75
61359;BME280;47228;46.762;23.598;2023-02-20T02:03:42;97555.77;;;0.96;70.62
61359;BME280;47228;46.762;23.598;2023-02-20T02:06:13;97553.38;;;0.94;70.55
61359;BME280;47228;46.762;23.598;2023-02-20T02:08:43;97554.81;;;0.92;70.65
61359;BME280;47228;46.762;23.598;2023-02-20T02:11:18;97553.19;;;0.88;71.04
61359;BME280;47228;46.762;23.598;2023-02-20T02:13:47;97549.19;;;0.86;71.23
61359;BME280;47228;46.762;23.598;2023-02-20T02:16:47;97552.04;;;0.85;70.89
61359;BME280;47228;46.762;23.598;2023-02-20T02:25:01;97557.17;;;0.81;70.54
61359;BME280;47228;46.762;23.598;2023-02-20T02:41:38;97571.75;;;0.67;70.76
61359;BME280;47228;46.762;23.598;2023-02-20T02:51:52;97588.31;;;0.59;70.93
61359;BME280;47228;46.762;23.598;2023-02-20T02:54:24;97591.34;;;0.56;71.11
61359;BME280;47228;46.762;23.598;2023-02-20T02:57:17;97592.84;;;0.55;70.98
61359;BME280;47228;46.762;23.598;2023-02-20T02:59:46;97599.30;;;0.55;70.70
61359;BME280;47228;46.762;23.598;2023-02-20T03:02:16;97604.52;;;0.55;70.37
61359;BME280;47228;46.762;23.598;2023-02-20T03:04:48;97605.83;;;0.54;70.49
61359;BME280;47228;46.762;23.598;2023-02-20T03:07:18;97606.52;;;0.52;70.47
61359;BME280;47228;46.762;23.598;2023-02-20T03:09:51;97611.29;;;0.49;70.20
61359;BME280;47228;46.762;23.598;2023-02-20T03:12:22;97613.75;;;0.45;70.31
61359;BME280;47228;46.762;23.598;2023-02-20T03:15:16;97617.65;;;0.42;70.33
61359;BME280;47228;46.762;23.598;2023-02-20T03:20:56;97622.02;;;0.35;70.53
61359;BME280;47228;46.762;23.598;2023-02-20T03:23:32;97625.69;;;0.35;70.53
61359;BME280;47228;46.762;23.598;2023-02-20T03:26:07;97625.88;;;0.33;70.14
61359;BME280;47228;46.762;23.598;2023-02-20T03:28:40;97629.27;;;0.30;70.24
61359;BME280;47228;46.762;23.598;2023-02-20T03:31:19;97629.76;;;0.31;70.30
61359;BME280;47228;46.762;23.598;2023-02-20T03:33:55;97630.02;;;0.30;69.99
61359;BME280;47228;46.762;23.598;2023-02-20T03:36:49;97634.73;;;0.27;70.29
61359;BME280;47228;46.762;23.598;2023-02-20T03:39:43;97642.31;;;0.26;70.23
61359;BME280;47228;46.762;23.598;2023-02-20T03:42:33;97643.68;;;0.24;70.48
61359;BME280;47228;46.762;23.598;2023-02-20T03:45:21;97648.65;;;0.23;69.75
61359;BME280;47228;46.762;23.598;2023-02-20T03:47:53;97647.24;;;0.23;69.67
61359;BME280;47228;46.762;23.598;2023-02-20T03:50:21;97648.44;;;0.23;69.88
61359;BME280;47228;46.762;23.598;2023-02-20T03:52:50;97647.28;;;0.25;69.55
61359;BME280;47228;46.762;23.598;2023-02-20T03:55:18;97649.07;;;0.24;69.16
61359;BME280;47228;46.762;23.598;2023-02-20T03:57:50;97646.72;;;0.23;69.18
61359;BME280;47228;46.762;23.598;2023-02-20T04:00:21;97646.65;;;0.22;69.28
61359;BME280;47228;46.762;23.598;2023-02-20T04:02:53;97653.27;;;0.20;69.08
61359;BME280;47228;46.762;23.598;2023-02-20T04:05:26;97658.64;;;0.18;69.02
61359;BME280;47228;46.762;23.598;2023-02-20T04:11:07;97666.10;;;0.15;68.74
61359;BME280;47228;46.762;23.598;2023-02-20T04:13:36;97667.94;;;0.14;69.14
61359;BME280;47228;46.762;23.598;2023-02-20T04:16:06;97670.30;;;0.12;69.23
61359;BME280;47228;46.762;23.598;2023-02-20T04:18:35;97670.23;;;0.13;69.55
61359;BME280;47228;46.762;23.598;2023-02-20T04:21:09;97665.09;;;0.14;69.37
61359;BME280;47228;46.762;23.598;2023-02-20T04:23:41;97662.39;;;0.15;68.90
61359;BME280;47228;46.762;23.598;2023-02-20T04:26:19;97668.58;;;0.16;68.55
61359;BME280;47228;46.762;23.598;2023-02-20T04:28:48;97670.15;;;0.16;68.46
61359;BME280;47228;46.762;23.598;2023-02-20T04:31:17;97671.58;;;0.16;68.21
61359;BME280;47228;46.762;23.598;2023-02-20T04:33:46;97676.42;;;0.16;68.29
61359;BME280;47228;46.762;23.598;2023-02-20T04:36:14;97680.95;;;0.16;68.07
61359;BME280;47228;46.762;23.598;2023-02-20T04:38:42;97684.98;;;0.16;68.16
61359;BME280;47228;46.762;23.598;2023-02-20T04:41:10;97686.61;;;0.15;67.61
61359;BME280;47228;46.762;23.598;2023-02-20T04:43:38;97691.45;;;0.13;67.59
61359;BME280;47228;46.762;23.598;2023-02-20T04:46:05;97694.35;;;0.11;67.13
61359;BME280;47228;46.762;23.598;2023-02-20T04:48:36;97689.99;;;0.10;67.36
61359;BME280;47228;46.762;23.598;2023-02-20T04:51:15;97699.63;;;0.09;67.04
61359;BME280;47228;46.762;23.598;2023-02-20T04:54:13;97702.14;;;0.10;66.82
61359;BME280;47228;46.762;23.598;2023-02-20T04:56:51;97702.94;;;0.14;67.03
61359;BME280;47228;46.762;23.598;2023-02-20T04:59:19;97711.31;;;0.16;67.18
61359;BME280;47228;46.762;23.598;2023-02-20T05:01:47;97717.60;;;0.17;67.24
61359;BME280;47228;46.762;23.598;2023-02-20T05:04:19;97718.95;;;0.18;67.20
61359;BME280;47228;46.762;23.598;2023-02-20T05:06:50;97722.11;;;0.18;67.17
61359;BME280;47228;46.762;23.598;2023-02-20T05:09:19;97727.52;;;0.17;67.41
61359;BME280;47228;46.762;23.598;2023-02-20T05:11:47;97728.95;;;0.17;66.97
61359;BME280;47228;46.762;23.598;2023-02-20T05:14:16;97733.47;;;0.15;66.86
61359;BME280;47228;46.762;23.598;2023-02-20T05:16:44;97737.64;;;0.13;66.90
61359;BME280;47228;46.762;23.598;2023-02-20T05:19:13;97742.37;;;0.13;67.02
61359;BME280;47228;46.762;23.598;2023-02-20T05:21:43;97741.38;;;0.12;67.02
61359;BME280;47228;46.762;23.598;2023-02-20T05:24:30;97745.60;;;0.11;67.34
61359;BME280;47228;46.762;23.598;2023-02-20T05:27:01;97750.66;;;0.11;67.01
61359;BME280;47228;46.762;23.598;2023-02-20T05:29:29;97751.80;;;0.12;66.94
61359;BME280;47228;46.762;23.598;2023-02-20T05:31:57;97755.13;;;0.14;66.85
61359;BME280;47228;46.762;23.598;2023-02-20T05:34:25;97754.45;;;0.16;66.86
61359;BME280;47228;46.762;23.598;2023-02-20T05:36:53;97763.98;;;0.19;67.08
61359;BME280;47228;46.762;23.598;2023-02-20T05:39:24;97766.50;;;0.20;66.23
61359;BME280;47228;46.762;23.598;2023-02-20T05:41:51;97776.79;;;0.20;66.08
61359;BME280;47228;46.762;23.598;2023-02-20T05:44:19;97778.17;;;0.20;66.53
61359;BME280;47228;46.762;23.598;2023-02-20T05:46:47;97778.98;;;0.21;66.07
61359;BME280;47228;46.762;23.598;2023-02-20T05:49:16;97781.70;;;0.21;65.83
61359;BME280;47228;46.762;23.598;2023-02-20T05:51:45;97779.77;;;0.21;65.88
61359;BME280;47228;46.762;23.598;2023-02-20T05:54:13;97786.14;;;0.23;66.03
61359;BME280;47228;46.762;23.598;2023-02-20T05:56:42;97794.41;;;0.24;65.83
61359;BME280;47228;46.762;23.598;2023-02-20T05:59:15;97797.38;;;0.23;65.74
61359;BME280;47228;46.762;23.598;2023-02-20T06:01:44;97804.65;;;0.24;65.73
61359;BME280;47228;46.762;23.598;2023-02-20T06:04:12;97808.95;;;0.25;65.74
61359;BME280;47228;46.762;23.598;2023-02-20T06:06:41;97816.48;;;0.24;65.07
61359;BME280;47228;46.762;23.598;2023-02-20T06:09:10;97818.39;;;0.24;65.26
61359;BME280;47228;46.762;23.598;2023-02-20T06:11:39;97824.61;;;0.25;65.31
61359;BME280;47228;46.762;23.598;2023-02-20T06:14:07;97829.80;;;0.25;65.25
61359;BME280;47228;46.762;23.598;2023-02-20T06:16:35;97833.36;;;0.27;65.01
61359;BME280;47228;46.762;23.598;2023-02-20T06:19:03;97833.97;;;0.28;65.00
61359;BME280;47228;46.762;23.598;2023-02-20T06:21:33;97841.01;;;0.29;64.88
61359;BME280;47228;46.762;23.598;2023-02-20T06:24:03;97845.88;;;0.29;64.76
61359;BME280;47228;46.762;23.598;2023-02-20T06:26:31;97848.49;;;0.29;64.52
61359;BME280;47228;46.762;23.598;2023-02-20T06:28:59;97852.77;;;0.30;64.68
61359;BME280;47228;46.762;23.598;2023-02-20T06:31:27;97859.27;;;0.29;64.30
61359;BME280;47228;46.762;23.598;2023-02-20T06:33:55;97861.23;;;0.29;64.22
61359;BME280;47228;46.762;23.598;2023-02-20T06:36:29;97865.92;;;0.29;64.54
61359;BME280;47228;46.762;23.598;2023-02-20T06:38:59;97869.58;;;0.29;63.95
61359;BME280;47228;46.762;23.598;2023-02-20T06:41:27;97872.55;;;0.29;63.81
61359;BME280;47228;46.762;23.598;2023-02-20T06:43:56;97877.91;;;0.29;63.43
61359;BME280;47228;46.762;23.598;2023-02-20T06:46:25;97885.63;;;0.29;63.03
61359;BME280;47228;46.762;23.598;2023-02-20T06:48:56;97888.11;;;0.28;63.08
61359;BME280;47228;46.762;23.598;2023-02-20T06:51:32;97885.27;;;0.29;63.51
61359;BME280;47228;46.762;23.598;2023-02-20T06:54:01;97885.63;;;0.29;63.20
61359;BME280;47228;46.762;23.598;2023-02-20T06:56:34;97888.61;;;0.29;62.48
61359;BME280;47228;46.762;23.598;2023-02-20T06:59:18;97891.08;;;0.28;62.42
61359;BME280;47228;46.762;23.598;2023-02-20T07:01:46;97896.33;;;0.28;62.11
61359;BME280;47228;46.762;23.598;2023-02-20T07:04:20;97899.27;;;0.28;61.62
61359;BME280;47228;46.762;23.598;2023-02-20T07:07:06;97899.15;;;0.29;61.64
61359;BME280;47228;46.762;23.598;2023-02-20T07:09:34;97894.80;;;0.34;61.63
61359;BME280;47228;46.762;23.598;2023-02-20T07:12:02;97894.41;;;0.41;61.81
61359;BME280;47228;46.762;23.598;2023-02-20T07:14:30;97894.60;;;0.49;61.20
61359;BME280;47228;46.762;23.598;2023-02-20T07:16:58;97893.21;;;0.58;61.06
61359;BME280;47228;46.762;23.598;2023-02-20T07:19:36;97895.00;;;0.68;61.36
61359;BME280;47228;46.762;23.598;2023-02-20T07:22:11;97895.54;;;0.81;61.22
61359;BME280;47228;46.762;23.598;2023-02-20T07:24:39;97902.38;;;0.91;60.94
61359;BME280;47228;46.762;23.598;2023-02-20T07:27:08;97911.02;;;1.03;60.05
61359;BME280;47228;46.762;23.598;2023-02-20T07:29:47;97913.80;;;1.13;59.56
61359;BME280;47228;46.762;23.598;2023-02-20T07:32:16;97912.83;;;1.23;58.08
61359;BME280;47228;46.762;23.598;2023-02-20T07:34:47;97915.81;;;1.31;58.15
61359;BME280;47228;46.762;23.598;2023-02-20T07:37:30;97922.14;;;1.41;58.23
61359;BME280;47228;46.762;23.598;2023-02-20T07:39:58;97930.56;;;1.51;58.15
61359;BME280;47228;46.762;23.598;2023-02-20T07:42:26;97928.61;;;1.59;57.40
61359;BME280;47228;46.762;23.598;2023-02-20T07:44:56;97926.01;;;1.69;58.35
61359;BME280;47228;46.762;23.598;2023-02-20T07:47:27;97925.25;;;1.82;58.60
61359;BME280;47228;46.762;23.598;2023-02-20T07:50:14;97923.05;;;1.96;57.86
61359;BME280;47228;46.762;23.598;2023-02-20T07:53:02;97919.58;;;2.08;57.56
61359;BME280;47228;46.762;23.598;2023-02-20T07:55:30;97919.63;;;2.19;57.27
61359;BME280;47228;46.762;23.598;2023-02-20T07:58:00;97916.98;;;2.30;56.26
61359;BME280;47228;46.762;23.598;2023-02-20T08:00:28;97920.08;;;2.40;56.09
61359;BME280;47228;46.762;23.598;2023-02-20T08:02:56;97922.30;;;2.49;55.19
61359;BME280;47228;46.762;23.598;2023-02-20T08:05:26;97924.84;;;2.56;55.21
61359;BME280;47228;46.762;23.598;2023-02-20T08:08:07;97926.33;;;2.66;55.23
61359;BME280;47228;46.762;23.598;2023-02-20T08:10:36;97927.30;;;2.75;54.07
61359;BME280;47228;46.762;23.598;2023-02-20T08:13:04;97928.03;;;2.83;54.16
61359;BME280;47228;46.762;23.598;2023-02-20T08:15:32;97919.79;;;2.92;53.78
61359;BME280;47228;46.762;23.598;2023-02-20T08:18:00;97913.69;;;3.04;54.77
61359;BME280;47228;46.762;23.598;2023-02-20T08:20:28;97908.88;;;3.18;54.13
61359;BME280;47228;46.762;23.598;2023-02-20T08:22:56;97907.75;;;3.29;52.96
61359;BME280;47228;46.762;23.598;2023-02-20T08:25:27;97906.23;;;3.36;53.17
61359;BME280;47228;46.762;23.598;2023-02-20T08:27:55;97911.73;;;3.47;52.31
61359;BME280;47228;46.762;23.598;2023-02-20T08:30:26;97912.84;;;3.53;51.65
61359;BME280;47228;46.762;23.598;2023-02-20T08:32:54;97910.39;;;3.59;51.64
61359;BME280;47228;46.762;23.598;2023-02-20T08:35:23;97911.30;;;3.64;51.30
61359;BME280;47228;46.762;23.598;2023-02-20T08:37:51;97910.05;;;3.74;51.63
61359;BME280;47228;46.762;23.598;2023-02-20T08:40:19;97904.61;;;3.86;51.47
61359;BME280;47228;46.762;23.598;2023-02-20T08:42:50;97906.11;;;3.94;50.22
61359;BME280;47228;46.762;23.598;2023-02-20T08:45:18;97902.00;;;3.94;49.57
61359;BME280;47228;46.762;23.598;2023-02-20T08:47:47;97903.67;;;3.99;49.93
61359;BME280;47228;46.762;23.598;2023-02-20T08:50:17;97906.33;;;4.04;48.99
61359;BME280;47228;46.762;23.598;2023-02-20T08:52:45;97906.20;;;4.04;49.13
61359;BME280;47228;46.762;23.598;2023-02-20T08:55:13;97906.27;;;4.10;49.90
61359;BME280;47228;46.762;23.598;2023-02-20T08:57:42;97896.57;;;4.11;48.55
61359;BME280;47228;46.762;23.598;2023-02-20T09:00:13;97900.39;;;4.10;48.51
61359;BME280;47228;46.762;23.598;2023-02-20T09:02:42;97898.16;;;4.06;48.37
61359;BME280;47228;46.762;23.598;2023-02-20T09:05:10;97898.04;;;4.03;47.77
61359;BME280;47228;46.762;23.598;2023-02-20T09:07:38;97907.05;;;4.02;48.69
61359;BME280;47228;46.762;23.598;2023-02-20T09:10:06;97906.44;;;4.12;49.03
61359;BME280;47228;46.762;23.598;2023-02-20T09:12:34;97907.14;;;4.20;48.73
61359;BME280;47228;46.762;23.598;2023-02-20T09:15:02;97903.34;;;4.24;48.56
61359;BME280;47228;46.762;23.598;2023-02-20T09:17:30;97900.15;;;4.30;48.90
61359;BME280;47228;46.762;23.598;2023-02-20T09:19:58;97898.38;;;4.34;48.53
61359;BME280;47228;46.762;23.598;2023-02-20T09:22:26;97900.23;;;4.43;48.87
61359;BME280;47228;46.762;23.598;2023-02-20T09:24:54;97898.77;;;4.50;48.45
61359;BME280;47228;46.762;23.598;2023-02-20T09:27:22;97898.77;;;4.56;47.52
61359;BME280;47228;46.762;23.598;2023-02-20T09:29:50;97890.27;;;4.55;47.75
61359;BME280;47228;46.762;23.598;2023-02-20T09:32:18;97887.44;;;4.59;48.32
61359;BME280;47228;46.762;23.598;2023-02-20T09:34:46;97887.04;;;4.66;48.51
61359;BME280;47228;46.762;23.598;2023-02-20T09:37:14;97890.29;;;4.73;48.11
61359;BME280;47228;46.762;23.598;2023-02-20T09:39:42;97885.41;;;4.81;48.58
61359;BME280;47228;46.762;23.598;2023-02-20T09:42:23;97880.45;;;4.91;48.29
61359;BME280;47228;46.762;23.598;2023-02-20T09:45:15;97881.40;;;4.97;47.62
61359;BME280;47228;46.762;23.598;2023-02-20T09:50:47;97885.39;;;4.96;47.01
61359;BME280;47228;46.762;23.598;2023-02-20T09:53:30;97875.94;;;4.95;46.67
61359;BME280;47228;46.762;23.598;2023-02-20T09:56:03;97867.35;;;5.01;47.75
61359;BME280;47228;46.762;23.598;2023-02-20T10:01:16;97847.05;;;5.07;46.75
61359;BME280;47228;46.762;23.598;2023-02-20T10:03:57;97841.15;;;5.06;46.97
61359;BME280;47228;46.762;23.598;2023-02-20T10:06:30;97835.15;;;5.10;47.19
61359;BME280;47228;46.762;23.598;2023-02-20T10:09:00;97819.41;;;5.16;47.18
61359;BME280;47228;46.762;23.598;2023-02-20T10:20:02;97800.33;;;5.64;45.76
61359;BME280;47228;46.762;23.598;2023-02-20T10:22:55;97796.96;;;5.75;46.09
61359;BME280;47228;46.762;23.598;2023-02-20T10:25:39;97791.20;;;5.83;45.37
61359;BME280;47228;46.762;23.598;2023-02-20T10:28:12;97792.57;;;5.90;45.38
61359;BME280;47228;46.762;23.598;2023-02-20T10:34:11;97791.33;;;6.02;44.48
61359;BME280;47228;46.762;23.598;2023-02-20T10:36:50;97784.63;;;6.07;43.95
61359;BME280;47228;46.762;23.598;2023-02-20T10:39:21;97785.25;;;6.08;44.08
61359;BME280;47228;46.762;23.598;2023-02-20T10:42:09;97780.69;;;6.08;43.66
61359;BME280;47228;46.762;23.598;2023-02-20T10:45:15;97773.33;;;6.07;43.73
61359;BME280;47228;46.762;23.598;2023-02-20T10:47:41;97771.33;;;6.07;43.57
61359;BME280;47228;46.762;23.598;2023-02-20T10:50:18;97768.59;;;6.02;43.16
61359;BME280;47228;46.762;23.598;2023-02-20T10:53:14;97763.08;;;5.98;43.12
61359;BME280;47228;46.762;23.598;2023-02-20T10:58:32;97751.68;;;6.08;43.12
61359;BME280;47228;46.762;23.598;2023-02-20T11:01:07;97748.11;;;6.07;42.86
61359;BME280;47228;46.762;23.598;2023-02-20T11:03:56;97739.58;;;6.13;43.02
61359;BME280;47228;46.762;23.598;2023-02-20T11:06:35;97726.98;;;6.19;42.94
61359;BME280;47228;46.762;23.598;2023-02-20T11:09:04;97720.72;;;6.28;43.37
61359;BME280;47228;46.762;23.598;2023-02-20T11:11:44;97721.77;;;6.36;42.66
61359;BME280;47228;46.762;23.598;2023-02-20T11:14:23;97710.39;;;6.31;41.71
61359;BME280;47228;46.762;23.598;2023-02-20T11:17:10;97696.09;;;6.28;43.52
61359;BME280;47228;46.762;23.598;2023-02-20T11:19:44;97689.94;;;6.36;43.92
61359;BME280;47228;46.762;23.598;2023-02-20T11:22:14;97680.85;;;6.44;43.02
61359;BME280;47228;46.762;23.598;2023-02-20T11:24:45;97674.73;;;6.50;43.45
61359;BME280;47228;46.762;23.598;2023-02-20T11:27:16;97669.27;;;6.63;43.80
61359;BME280;47228;46.762;23.598;2023-02-20T11:29:53;97668.23;;;6.73;43.34
61359;BME280;47228;46.762;23.598;2023-02-20T11:32:49;97665.05;;;6.81;43.02
61359;BME280;47228;46.762;23.598;2023-02-20T11:41:11;97667.95;;;6.90;42.08
61359;BME280;47228;46.762;23.598;2023-02-20T11:43:42;97662.39;;;6.95;41.90
61359;BME280;47228;46.762;23.598;2023-02-20T11:46:27;97660.27;;;6.97;42.17
61359;BME280;47228;46.762;23.598;2023-02-20T11:51:45;97661.60;;;6.99;42.26
61359;BME280;47228;46.762;23.598;2023-02-20T11:57:04;97656.31;;;7.15;42.50
61359;BME280;47228;46.762;23.598;2023-02-20T11:59:46;97659.20;;;7.22;42.16
61359;BME280;47228;46.762;23.598;2023-02-20T12:05:11;97648.91;;;7.33;43.15
61359;BME280;47228;46.762;23.598;2023-02-20T12:07:41;97645.89;;;7.39;42.64
61359;BME280;47228;46.762;23.598;2023-02-20T12:12:50;97639.90;;;7.50;42.37
61359;BME280;47228;46.762;23.598;2023-02-20T12:15:22;97633.46;;;7.49;41.81
61359;BME280;47228;46.762;23.598;2023-02-20T12:20:55;97635.73;;;7.57;43.17
61359;BME280;47228;46.762;23.598;2023-02-20T12:23:34;97634.26;;;7.62;42.74
61359;BME280;47228;46.762;23.598;2023-02-20T12:26:33;97627.80;;;7.65;42.32
61359;BME280;47228;46.762;23.598;2023-02-20T12:32:15;97612.88;;;7.71;42.79
61359;BME280;47228;46.762;23.598;2023-02-20T12:44:09;97588.86;;;7.91;43.29
61359;BME280;47228;46.762;23.598;2023-02-20T12:46:54;97589.82;;;7.95;42.36
61359;BME280;47228;46.762;23.598;2023-02-20T12:50:03;97592.30;;;7.98;42.57
61359;BME280;47228;46.762;23.598;2023-02-20T12:53:08;97582.48;;;7.97;40.74
61359;BME280;47228;46.762;23.598;2023-02-20T13:00:52;97581.13;;;7.74;40.04
61359;BME280;47228;46.762;23.598;2023-02-20T13:06:10;97573.25;;;7.59;40.20
61359;BME280;47228;46.762;23.598;2023-02-20T13:12:09;97572.21;;;7.46;40.30
61359;BME280;47228;46.762;23.598;2023-02-20T13:20:13;97566.92;;;7.31;39.68
61359;BME280;47228;46.762;23.598;2023-02-20T13:23:00;97564.68;;;7.28;40.01
61359;BME280;47228;46.762;23.598;2023-02-20T13:28:26;97560.48;;;7.20;39.87
61359;BME280;47228;46.762;23.598;2023-02-20T13:31:45;97570.07;;;7.18;39.69
61359;BME280;47228;46.762;23.598;2023-02-20T13:36:45;97567.27;;;7.13;39.90
61359;BME280;47228;46.762;23.598;2023-02-20T13:42:03;97557.36;;;7.04;39.47
61359;BME280;47228;46.762;23.598;2023-02-20T13:44:39;97555.80;;;6.99;39.45
61359;BME280;47228;46.762;23.598;2023-02-20T13:49:54;97559.11;;;6.89;39.82
61359;BME280;47228;46.762;23.598;2023-02-20T13:57:56;97539.94;;;6.76;40.00
61359;BME280;47228;46.762;23.598;2023-02-20T14:00:51;97534.20;;;6.72;40.08
61359;BME280;47228;46.762;23.598;2023-02-20T14:03:22;97530.52;;;6.69;40.17
61359;BME280;47228;46.762;23.598;2023-02-20T14:06:16;97527.33;;;6.66;40.46
61359;BME280;47228;46.762;23.598;2023-02-20T14:08:47;97524.67;;;6.63;40.76
61359;BME280;47228;46.762;23.598;2023-02-20T14:11:33;97520.84;;;6.59;40.83
61359;BME280;47228;46.762;23.598;2023-02-20T14:14:07;97513.78;;;6.58;41.75
61359;BME280;47228;46.762;23.598;2023-02-20T14:16:38;97514.09;;;6.56;41.69
61359;BME280;47228;46.762;23.598;2023-02-20T14:21:46;97521.33;;;6.55;42.93
61359;BME280;47228;46.762;23.598;2023-02-20T14:24:27;97522.35;;;6.55;44.32
61359;BME280;47228;46.762;23.598;2023-02-20T14:26:56;97525.21;;;6.53;46.76
61359;BME280;47228;46.762;23.598;2023-02-20T14:29:32;97530.92;;;6.50;47.47
61359;BME280;47228;46.762;23.598;2023-02-20T14:32:02;97525.84;;;6.49;48.15
61359;BME280;47228;46.762;23.598;2023-02-20T14:37:57;97520.20;;;6.47;49.35
61359;BME280;47228;46.762;23.598;2023-02-20T14:40:38;97515.70;;;6.44;49.97
61359;BME280;47228;46.762;23.598;2023-02-20T14:45:43;97503.10;;;6.37;50.34
61359;BME280;47228;46.762;23.598;2023-02-20T14:48:24;97501.48;;;6.34;50.65
61359;BME280;47228;46.762;23.598;2023-02-20T14:51:08;97499.71;;;6.31;50.72
61359;BME280;47228;46.762;23.598;2023-02-20T14:53:39;97499.69;;;6.28;50.95
61359;BME280;47228;46.762;23.598;2023-02-20T14:56:16;97495.90;;;6.27;51.37
61359;BME280;47228;46.762;23.598;2023-02-20T14:58:45;97498.83;;;6.28;51.42
61359;BME280;47228;46.762;23.598;2023-02-20T15:03:59;97500.02;;;6.22;51.55
61359;BME280;47228;46.762;23.598;2023-02-20T15:06:29;97502.98;;;6.19;51.89
61359;BME280;47228;46.762;23.598;2023-02-20T15:09:00;97501.14;;;6.18;52.14
61359;BME280;47228;46.762;23.598;2023-02-20T15:14:22;97500.67;;;6.13;52.43
61359;BME280;47228;46.762;23.598;2023-02-20T15:19:41;97501.77;;;6.09;53.26
61359;BME280;47228;46.762;23.598;2023-02-20T15:28:13;97495.55;;;6.01;53.71
61359;BME280;47228;46.762;23.598;2023-02-20T15:33:43;97483.11;;;5.93;54.13
61359;BME280;47228;46.762;23.598;2023-02-20T15:36:20;97475.75;;;5.89;54.53
61359;BME280;47228;46.762;23.598;2023-02-20T15:38:55;97472.02;;;5.88;55.12
61359;BME280;47228;46.762;23.598;2023-02-20T15:41:23;97471.77;;;5.86;55.00
61359;BME280;47228;46.762;23.598;2023-02-20T15:43:52;97471.42;;;5.84;55.22
61359;BME280;47228;46.762;23.598;2023-02-20T15:46:20;97472.34;;;5.82;55.64
61359;BME280;47228;46.762;23.598;2023-02-20T15:48:48;97465.05;;;5.78;55.73
61359;BME280;47228;46.762;23.598;2023-02-20T15:51:20;97463.20;;;5.75;55.72
61359;BME280;47228;46.762;23.598;2023-02-20T15:53:51;97460.56;;;5.74;55.93
61359;BME280;47228;46.762;23.598;2023-02-20T15:56:20;97461.67;;;5.70;56.13